Terminal Aerodrome Forecast
Issued by NWS Wakefield, VA

Home | Current Version | Previous Version | Text Only | Print | Product List | Glossary On
Versions: 1 2 3 4 5 6 7 8 9 10 11 12 13 14 15 16
000
FTUS41 KAKQ 251155 RRB
TAFRIC
TAF
KRIC 251155Z 2512/2612 05005KT P6SM OVC100
     FM251500 09005KT P6SM OVC050
     FM251900 10004KT 4SM -RA BR SCT009 OVC020
     FM260000 06005KT 4SM -RA BR OVC005=

USA.gov is the U.S. government's official web portal to all federal, state and local government web resources and services.